createdAt,value
2019-02-05T00:00:37.478Z,26.10
2019-02-05T00:03:09.123Z,20.37
2019-02-05T00:05:42.257Z,18.53
2019-02-05T00:08:13.218Z,18.30
2019-02-05T00:10:46.194Z,21.00
2019-02-05T00:13:17.589Z,21.43
2019-02-05T00:15:50.833Z,20.97
2019-02-05T00:18:22.249Z,21.77
2019-02-05T00:20:55.428Z,24.90
2019-02-05T00:23:26.387Z,27.57
2019-02-05T00:26:06.186Z,24.07
2019-02-05T00:28:32.318Z,25.70
2019-02-05T00:31:05.437Z,27.77
2019-02-05T00:33:36.509Z,23.37
2019-02-05T00:36:09.834Z,29.17
2019-02-05T00:38:40.927Z,18.30
2019-02-05T00:41:13.990Z,17.73
2019-02-05T00:43:45.105Z,16.53
2019-02-05T00:46:18.114Z,21.47
2019-02-05T00:48:49.591Z,24.67
2019-02-05T00:51:22.815Z,23.07
2019-02-05T00:53:54.052Z,19.23
2019-02-05T00:56:27.230Z,15.97
2019-02-05T00:58:58.243Z,22.30
2019-02-05T01:01:31.647Z,25.33
2019-02-05T01:04:02.686Z,17.90
2019-02-05T01:06:36.748Z,22.93
2019-02-05T01:09:10.033Z,24.13
2019-02-05T01:11:43.065Z,21.83
2019-02-05T01:14:14.234Z,19.50
2019-02-05T01:16:47.229Z,19.63
2019-02-05T01:19:18.277Z,15.83
2019-02-05T01:21:51.823Z,19.00
2019-02-05T01:24:24.317Z,19.87
2019-02-05T01:26:57.341Z,21.97
2019-02-05T01:29:28.377Z,21.30
2019-02-05T01:32:01.590Z,17.90
2019-02-05T01:34:32.604Z,17.70
2019-02-05T01:37:05.851Z,15.13
2019-02-05T01:39:36.807Z,19.37
2019-02-05T01:42:10.114Z,19.87
2019-02-05T01:44:41.148Z,19.00
2019-02-05T01:47:14.428Z,17.37
2019-02-05T01:49:45.487Z,18.10
2019-02-05T01:52:18.547Z,18.43
2019-02-05T01:54:49.558Z,18.27
2019-02-05T01:57:22.735Z,19.63
2019-02-05T01:59:54.243Z,18.43
2019-02-05T02:02:27.283Z,18.60
2019-02-05T02:04:58.299Z,16.70
2019-02-05T02:07:31.650Z,20.20
2019-02-05T02:10:02.692Z,15.93
2019-02-05T02:12:36.129Z,18.80
2019-02-05T02:15:07.668Z,15.90
2019-02-05T02:17:40.645Z,15.87
2019-02-05T02:20:12.834Z,19.70
2019-02-05T02:22:46.049Z,20.93
2019-02-05T02:25:17.787Z,17.23
2019-02-05T02:27:51.385Z,20.47
2019-02-05T02:30:27.085Z,16.40
2019-02-05T02:33:00.214Z,18.80
2019-02-05T02:35:31.343Z,19.13
2019-02-05T02:38:04.388Z,18.10
2019-02-05T02:40:35.387Z,23.43
2019-02-05T02:43:08.386Z,23.13
2019-02-05T02:45:39.366Z,27.40
2019-02-05T02:48:12.488Z,23.10
2019-02-05T02:50:43.576Z,26.30
2019-02-05T02:53:16.565Z,30.33
2019-02-05T02:55:47.518Z,27.13
2019-02-05T02:58:20.551Z,26.07
2019-02-05T03:00:51.883Z,24.07
2019-02-05T03:03:25.162Z,23.87
2019-02-05T03:05:57.404Z,26.07
2019-02-05T03:08:30.509Z,29.93
2019-02-05T03:11:01.669Z,30.77
2019-02-05T03:13:34.725Z,28.87
2019-02-05T03:16:05.942Z,25.57
2019-02-05T03:18:39.024Z,25.07
2019-02-05T03:21:10.245Z,44.50
2019-02-05T03:23:43.333Z,45.03
2019-02-05T03:26:14.328Z,30.43
2019-02-05T03:28:47.509Z,25.73
2019-02-05T03:31:18.615Z,28.83
2019-02-05T03:33:51.781Z,29.17
2019-02-05T03:36:26.218Z,31.63
2019-02-05T03:38:59.289Z,32.40
2019-02-05T03:41:30.369Z,27.00
2019-02-05T03:44:03.666Z,24.10
2019-02-05T03:46:34.820Z,26.37
2019-02-05T03:49:08.123Z,29.87
2019-02-05T03:51:58.278Z,35.63
2019-02-05T03:54:51.292Z,41.57
2019-02-05T03:57:41.442Z,32.37
2019-02-05T04:00:28.970Z,32.93
2019-02-05T04:03:25.048Z,33.40
2019-02-05T04:06:21.118Z,38.70
2019-02-05T04:08:59.680Z,31.40
2019-02-05T04:11:42.411Z,30.50
2019-02-05T04:14:21.391Z,32.90
2019-02-05T04:17:17.532Z,29.17
2019-02-05T04:20:10.590Z,27.23
2019-02-05T04:23:01.228Z,38.67
2019-02-05T04:25:46.714Z,29.93
2019-02-05T04:28:37.220Z,34.47
2019-02-05T04:31:21.429Z,22.27
2019-02-05T04:34:16.210Z,26.17
2019-02-05T04:37:08.183Z,27.03
2019-02-05T04:39:54.363Z,29.10
2019-02-05T04:42:53.350Z,28.70
2019-02-05T04:45:58.907Z,27.13
2019-02-05T04:48:48.909Z,30.50
2019-02-05T04:51:43.840Z,34.03
2019-02-05T04:54:36.422Z,26.93
2019-02-05T04:57:34.568Z,25.37
2019-02-05T05:00:21.914Z,27.17
2019-02-05T05:03:07.401Z,29.57
2019-02-05T05:05:57.381Z,48.83
2019-02-05T05:08:50.671Z,17.77
2019-02-05T05:11:21.740Z,25.90
2019-02-05T05:13:55.147Z,14.40
2019-02-05T05:16:26.272Z,19.40
2019-02-05T05:18:59.815Z,18.80
2019-02-05T05:21:31.133Z,22.27
2019-02-05T05:24:04.781Z,16.13
2019-02-05T05:26:35.806Z,33.77
2019-02-05T05:29:08.864Z,30.07
2019-02-05T05:31:39.911Z,26.33
2019-02-05T05:34:12.944Z,36.50
2019-02-05T05:36:52.351Z,42.17
2019-02-05T05:39:25.462Z,41.70
2019-02-05T05:41:56.413Z,32.53
2019-02-05T05:44:29.556Z,34.73
2019-02-05T05:47:00.525Z,32.27
2019-02-05T05:49:33.557Z,34.13
2019-02-05T05:52:04.602Z,27.37
2019-02-05T05:54:37.845Z,23.50
2019-02-05T05:57:09.171Z,21.10
2019-02-05T05:59:42.338Z,17.70
2019-02-05T06:02:13.269Z,14.70
2019-02-05T06:04:46.289Z,14.87
2019-02-05T06:07:17.294Z,15.53
2019-02-05T06:09:50.392Z,19.90
2019-02-05T06:12:21.459Z,10.97
2019-02-05T06:14:54.856Z,15.93
2019-02-05T06:17:26.009Z,13.80
2019-02-05T06:19:59.295Z,10.10
2019-02-05T06:22:30.308Z,13.83
2019-02-05T06:25:03.383Z,20.60
2019-02-05T06:27:34.920Z,19.80
2019-02-05T06:30:08.871Z,17.97
2019-02-05T06:32:40.003Z,16.77
2019-02-05T06:35:13.121Z,22.30
2019-02-05T06:37:44.111Z,18.47
2019-02-05T06:40:18.733Z,23.33
2019-02-05T06:42:49.913Z,16.40
2019-02-05T06:45:23.163Z,16.97
2019-02-05T06:47:54.208Z,17.07
2019-02-05T06:50:27.280Z,15.30
2019-02-05T06:52:58.552Z,11.93
2019-02-05T06:55:31.715Z,17.30
2019-02-05T06:58:02.789Z,13.33
2019-02-05T07:00:35.960Z,21.20
2019-02-05T07:03:07.419Z,23.10
2019-02-05T07:05:40.862Z,15.00
2019-02-05T07:08:11.876Z,13.00
2019-02-05T07:10:45.015Z,18.43
2019-02-05T07:13:16.123Z,13.90
2019-02-05T07:15:49.224Z,21.97
2019-02-05T07:18:20.756Z,24.70
2019-02-05T07:20:53.945Z,17.07
2019-02-05T07:23:25.007Z,18.43
2019-02-05T07:26:02.392Z,62.30
2019-02-05T07:28:34.608Z,31.77
2019-02-05T07:31:07.994Z,18.73
2019-02-05T07:33:39.015Z,22.83
2019-02-05T07:36:13.140Z,19.60
2019-02-05T07:38:45.184Z,29.17
2019-02-05T07:41:18.250Z,17.60
2019-02-05T07:43:49.705Z,18.07
2019-02-05T07:46:22.831Z,16.80
2019-02-05T07:48:53.951Z,22.47
2019-02-05T07:51:27.083Z,27.83
2019-02-05T07:53:58.241Z,35.60
2019-02-05T07:56:31.344Z,39.20
2019-02-05T07:59:10.327Z,44.17
2019-02-05T08:01:42.835Z,44.10
2019-02-05T08:04:13.885Z,48.37
2019-02-05T08:06:49.651Z,46.63
2019-02-05T08:09:21.273Z,40.43
2019-02-05T08:11:54.473Z,41.53
2019-02-05T08:14:25.557Z,36.33
2019-02-05T08:16:58.802Z,30.50
2019-02-05T08:19:29.775Z,37.03
2019-02-05T08:22:03.971Z,38.53
2019-02-05T08:24:38.566Z,40.30
2019-02-05T08:27:11.643Z,38.97
2019-02-05T08:29:43.968Z,36.13
2019-02-05T08:32:16.065Z,33.30
2019-02-05T08:34:48.167Z,34.50
2019-02-05T08:37:21.794Z,42.13
2019-02-05T08:39:57.155Z,34.93
2019-02-05T08:42:30.190Z,35.00
2019-02-05T08:45:01.467Z,31.03
2019-02-05T08:47:34.824Z,34.10
2019-02-05T08:50:07.031Z,27.50
2019-02-05T08:52:41.220Z,27.23
2019-02-05T08:55:13.495Z,35.13
2019-02-05T08:57:46.704Z,34.37
2019-02-05T09:00:22.076Z,34.37
2019-02-05T09:02:55.732Z,39.00
2019-02-05T09:05:26.796Z,31.73
2019-02-05T09:07:59.952Z,37.40
2019-02-05T09:10:31.919Z,43.37
2019-02-05T09:13:05.467Z,40.47
2019-02-05T09:15:36.897Z,41.23
2019-02-05T09:18:10.341Z,47.83
2019-02-05T09:20:41.340Z,39.70
2019-02-05T09:23:14.557Z,37.60
2019-02-05T09:25:46.041Z,42.30
2019-02-05T09:28:20.612Z,46.90
2019-02-05T09:30:53.002Z,41.83
2019-02-05T09:33:25.282Z,46.03
2019-02-05T09:35:57.647Z,42.97
2019-02-05T09:38:31.154Z,43.10
2019-02-05T09:41:02.977Z,39.37
2019-02-05T09:43:36.107Z,37.43
2019-02-05T09:46:07.423Z,38.43
2019-02-05T09:48:40.656Z,38.00
2019-02-05T09:51:11.717Z,45.97
2019-02-05T09:53:45.316Z,43.33
2019-02-05T09:56:16.404Z,42.80
2019-02-05T09:58:49.405Z,42.83
2019-02-05T10:01:20.445Z,45.17
2019-02-05T10:03:53.608Z,44.60
2019-02-05T10:06:24.579Z,43.00
2019-02-05T10:08:57.848Z,41.77
2019-02-05T10:11:28.943Z,41.27
2019-02-05T10:14:02.009Z,50.40
2019-02-05T10:16:33.100Z,50.57
2019-02-05T10:19:06.137Z,36.83
2019-02-05T10:21:37.159Z,37.13
2019-02-05T10:24:10.516Z,43.80
2019-02-05T10:26:41.534Z,44.30
2019-02-05T10:29:14.655Z,47.30
2019-02-05T10:31:46.819Z,41.03
2019-02-05T10:34:18.932Z,38.43
2019-02-05T10:36:51.281Z,41.60
2019-02-05T10:39:24.486Z,42.33
2019-02-05T10:41:55.524Z,44.17
2019-02-05T10:44:28.621Z,38.87
2019-02-05T10:47:00.245Z,38.03
2019-02-05T10:49:33.328Z,43.87
2019-02-05T10:52:04.439Z,51.43
2019-02-05T10:54:37.738Z,45.93
2019-02-05T10:57:08.956Z,37.03
2019-02-05T10:59:42.216Z,39.17
2019-02-05T11:02:13.327Z,45.77
2019-02-05T11:04:49.422Z,39.47
2019-02-05T11:07:20.756Z,52.17
2019-02-05T11:09:53.812Z,42.67
2019-02-05T11:12:31.580Z,41.13
2019-02-05T11:15:04.922Z,44.43
2019-02-05T11:17:36.093Z,45.20
2019-02-05T11:20:11.456Z,42.30
2019-02-05T11:22:42.407Z,41.27
2019-02-05T11:25:15.661Z,41.40
2019-02-05T11:27:46.604Z,41.70
2019-02-05T11:30:20.863Z,40.73
2019-02-05T11:32:52.959Z,42.53
2019-02-05T11:35:26.458Z,47.23
2019-02-05T11:37:57.584Z,45.13
2019-02-05T11:40:32.920Z,42.50
2019-02-05T11:43:04.974Z,43.13
2019-02-05T11:45:38.220Z,45.50
2019-02-05T11:48:11.110Z,46.50
2019-02-05T11:50:44.340Z,45.20
2019-02-05T11:53:15.523Z,45.40
2019-02-05T11:55:48.686Z,45.83
2019-02-05T11:58:19.803Z,45.00
2019-02-05T12:01:04.110Z,42.07
2019-02-05T12:03:35.162Z,46.47
2019-02-05T12:06:08.272Z,57.07
2019-02-05T12:08:39.378Z,46.93
2019-02-05T12:11:12.453Z,44.20
2019-02-05T12:13:44.248Z,51.60
2019-02-05T12:16:17.843Z,41.43
2019-02-05T12:18:49.191Z,44.63
2019-02-05T12:21:22.370Z,45.30
2019-02-05T12:23:53.442Z,65.00
2019-02-05T12:26:26.450Z,46.03
2019-02-05T12:28:57.522Z,49.30
2019-02-05T12:31:31.842Z,51.17
2019-02-05T12:34:06.261Z,53.47
2019-02-05T12:36:39.427Z,53.90
2019-02-05T12:39:16.764Z,48.10
2019-02-05T12:41:49.977Z,40.60
2019-02-05T12:44:20.978Z,47.70
2019-02-05T12:46:54.178Z,53.07
2019-02-05T12:49:26.405Z,55.43
2019-02-05T12:51:59.818Z,56.23
2019-02-05T12:54:30.943Z,51.67
2019-02-05T12:57:03.992Z,54.33
2019-02-05T12:59:34.972Z,55.87
2019-02-05T13:02:08.219Z,51.27
2019-02-05T13:04:39.583Z,49.43
2019-02-05T13:07:13.071Z,54.00
2019-02-05T13:09:49.959Z,55.20
2019-02-05T13:12:23.345Z,55.57
2019-02-05T13:14:54.721Z,46.80
2019-02-05T13:17:27.948Z,49.77
2019-02-05T13:19:58.958Z,46.03
2019-02-05T13:22:32.104Z,48.40
2019-02-05T13:25:03.120Z,50.50
2019-02-05T13:27:36.688Z,46.40
2019-02-05T13:30:08.807Z,54.53
2019-02-05T13:32:42.044Z,49.43
2019-02-05T13:35:13.647Z,44.10
2019-02-05T13:37:46.783Z,54.23
2019-02-05T13:40:19.203Z,49.63
2019-02-05T13:42:52.399Z,51.73
2019-02-05T13:45:24.543Z,53.83
2019-02-05T13:47:57.920Z,56.83
2019-02-05T13:50:33.268Z,50.10
2019-02-05T13:53:04.935Z,50.63
2019-02-05T13:55:37.775Z,54.93
2019-02-05T13:58:11.300Z,54.73
2019-02-05T14:00:52.482Z,56.90
2019-02-05T14:03:25.788Z,57.33
2019-02-05T14:05:56.800Z,62.87
2019-02-05T14:08:29.909Z,61.27
2019-02-05T14:11:01.115Z,70.43
2019-02-05T14:13:34.662Z,72.77
2019-02-05T14:16:06.539Z,68.03
2019-02-05T14:18:39.826Z,73.47
2019-02-05T14:21:11.140Z,68.07
2019-02-05T14:23:45.389Z,74.10
2019-02-05T14:26:19.520Z,70.07
2019-02-05T14:28:52.531Z,75.37
2019-02-05T14:31:31.492Z,64.20
2019-02-05T14:33:58.740Z,62.17
2019-02-05T14:36:30.923Z,71.03
2019-02-05T14:39:02.924Z,66.77
2019-02-05T14:41:37.816Z,59.17
2019-02-05T14:44:10.924Z,62.73
2019-02-05T14:46:41.959Z,62.03
2019-02-05T14:49:15.435Z,74.20
2019-02-05T14:51:47.568Z,67.10
2019-02-05T14:54:20.650Z,62.90
2019-02-05T14:56:51.797Z,69.37
2019-02-05T14:59:24.857Z,74.80
2019-02-05T15:01:56.019Z,70.70
2019-02-05T15:04:29.156Z,71.37
2019-02-05T15:07:00.285Z,75.93
2019-02-05T15:09:33.534Z,62.53
2019-02-05T15:12:04.592Z,57.60
2019-02-05T15:14:37.799Z,64.93
2019-02-05T15:17:08.820Z,60.93
2019-02-05T15:19:42.007Z,64.63
2019-02-05T15:22:12.967Z,63.07
2019-02-05T15:24:46.406Z,61.87
2019-02-05T15:27:18.723Z,59.50
2019-02-05T15:29:51.741Z,59.37
2019-02-05T15:32:51.801Z,62.10
2019-02-05T15:35:24.138Z,58.70
2019-02-05T15:37:56.229Z,54.50
2019-02-05T15:40:30.566Z,62.77
2019-02-05T15:43:04.691Z,66.90
2019-02-05T15:45:37.720Z,62.63
2019-02-05T15:48:09.009Z,56.90
2019-02-05T15:50:42.246Z,58.93
2019-02-05T15:53:13.550Z,67.50
2019-02-05T15:55:47.221Z,70.80
2019-02-05T15:58:18.718Z,63.20
2019-02-05T16:00:54.869Z,68.27
2019-02-05T16:03:28.940Z,69.33
2019-02-05T16:06:02.320Z,71.53
2019-02-05T16:08:33.535Z,70.00
2019-02-05T16:11:07.341Z,73.73
2019-02-05T16:13:38.358Z,70.20
2019-02-05T16:16:11.737Z,77.93
2019-02-05T16:18:44.631Z,81.30
2019-02-05T16:21:17.947Z,79.77
2019-02-05T16:23:49.196Z,79.83
2019-02-05T16:26:22.342Z,80.40
2019-02-05T16:28:53.489Z,84.43
2019-02-05T16:31:28.005Z,71.23
2019-02-05T16:34:00.448Z,83.30
2019-02-05T16:36:32.571Z,87.23
2019-02-05T16:39:06.354Z,151.13
2019-02-05T16:41:41.593Z,80.83
2019-02-05T16:44:15.754Z,102.80
2019-02-05T16:46:48.853Z,100.17
2019-02-05T16:49:22.317Z,94.97
2019-02-05T16:51:54.893Z,88.90
2019-02-05T16:54:26.305Z,108.13
2019-02-05T16:56:59.391Z,99.30
2019-02-05T16:59:30.671Z,86.13
2019-02-05T17:02:03.883Z,82.13
2019-02-05T17:04:36.499Z,83.07
2019-02-05T17:07:09.781Z,148.57
2019-02-05T17:09:40.929Z,140.40
2019-02-05T17:12:14.023Z,122.50
2019-02-05T17:14:45.050Z,104.40
2019-02-05T17:17:20.784Z,112.50
2019-02-05T17:19:51.261Z,141.00
2019-02-05T17:22:24.647Z,155.30
2019-02-05T17:24:55.720Z,168.83
2019-02-05T17:27:28.955Z,140.53
2019-02-05T17:30:00.376Z,133.47
2019-02-05T17:32:40.313Z,132.77
2019-02-05T17:35:07.323Z,134.10
2019-02-05T17:37:41.173Z,143.17
2019-02-05T17:40:13.626Z,119.20
2019-02-05T17:42:48.377Z,105.70
2019-02-05T17:45:23.828Z,131.97
2019-02-05T17:47:58.498Z,117.80
2019-02-05T17:50:29.528Z,109.30
2019-02-05T17:53:03.350Z,119.33
2019-02-05T17:55:34.487Z,135.23
2019-02-05T17:58:07.828Z,109.37
2019-02-05T18:01:00.812Z,136.90
2019-02-05T18:03:34.146Z,125.00
2019-02-05T18:06:05.927Z,127.03
2019-02-05T18:08:39.092Z,148.53
2019-02-05T18:11:10.279Z,142.13
2019-02-05T18:13:43.635Z,158.80
2019-02-05T18:16:18.650Z,142.20
2019-02-05T18:18:51.824Z,120.27
2019-02-05T18:21:22.956Z,144.53
2019-02-05T18:23:56.152Z,148.57
2019-02-05T18:26:27.438Z,137.10
2019-02-05T18:29:00.688Z,176.70
2019-02-05T18:31:32.005Z,160.17
2019-02-05T18:34:05.368Z,187.60
2019-02-05T18:36:36.420Z,141.17
2019-02-05T18:39:10.622Z,155.83
2019-02-05T18:41:42.045Z,156.30
2019-02-05T18:44:15.302Z,193.00
2019-02-05T18:46:46.399Z,162.50
2019-02-05T18:49:20.772Z,149.33
2019-02-05T18:51:51.888Z,154.67
2019-02-05T18:54:25.238Z,174.40
2019-02-05T18:56:56.912Z,185.03
2019-02-05T18:59:30.030Z,177.40
2019-02-05T19:02:02.335Z,196.03
2019-02-05T19:04:35.460Z,210.37
2019-02-05T19:07:06.721Z,211.47
2019-02-05T19:09:39.808Z,168.77
2019-02-05T19:12:10.861Z,217.97
2019-02-05T19:14:44.542Z,176.97
2019-02-05T19:17:15.713Z,167.70
2019-02-05T19:19:48.831Z,162.97
2019-02-05T19:22:20.038Z,128.83
2019-02-05T19:25:02.165Z,142.60
2019-02-05T19:27:33.627Z,152.87
2019-02-05T19:30:07.682Z,185.27
2019-02-05T19:32:38.733Z,187.47
2019-02-05T19:35:11.986Z,157.03
2019-02-05T19:37:43.099Z,130.93
2019-02-05T19:40:16.301Z,152.90
2019-02-05T19:42:47.539Z,122.60
2019-02-05T19:45:42.857Z,155.30
2019-02-05T19:48:21.643Z,174.73
2019-02-05T19:50:55.435Z,153.83
2019-02-05T19:53:26.457Z,159.47
2019-02-05T19:56:00.182Z,150.37
2019-02-05T19:58:31.515Z,147.27
2019-02-05T20:01:04.760Z,130.83
2019-02-05T20:03:38.783Z,173.37
2019-02-05T20:06:10.735Z,165.90
2019-02-05T20:08:41.777Z,164.80
2019-02-05T20:11:15.065Z,118.53
2019-02-05T20:13:46.128Z,166.10
2019-02-05T20:16:19.309Z,161.80
2019-02-05T20:18:50.432Z,183.47
2019-02-05T20:21:23.580Z,135.53
2019-02-05T20:23:54.732Z,162.00
2019-02-05T20:26:28.121Z,155.40
2019-02-05T20:28:59.228Z,155.73
2019-02-05T20:31:32.444Z,160.67
2019-02-05T20:34:04.588Z,176.03
2019-02-05T20:36:36.642Z,170.93
2019-02-05T20:39:12.783Z,175.73
2019-02-05T20:41:45.015Z,133.73
2019-02-05T20:44:17.347Z,150.53
2019-02-05T20:46:49.367Z,137.60
2019-02-05T20:49:21.445Z,126.60
2019-02-05T20:51:53.977Z,126.90
2019-02-05T20:54:25.192Z,141.67
2019-02-05T20:56:58.589Z,112.10
2019-02-05T20:59:30.425Z,108.70
2019-02-05T21:02:04.588Z,120.30
2019-02-05T21:04:46.611Z,160.90
2019-02-05T21:07:10.638Z,145.60
2019-02-05T21:09:42.237Z,144.03
2019-02-05T21:12:15.571Z,142.90
2019-02-05T21:14:46.688Z,132.03
2019-02-05T21:17:20.062Z,104.93
2019-02-05T21:19:51.362Z,110.77
2019-02-05T21:22:24.518Z,113.93
2019-02-05T21:24:55.699Z,101.77
2019-02-05T21:27:28.861Z,92.77
2019-02-05T21:30:00.347Z,98.00
2019-02-05T21:32:34.377Z,102.17
2019-02-05T21:35:08.904Z,108.17
2019-02-05T21:37:42.137Z,91.47
2019-02-05T21:40:15.155Z,83.70
2019-02-05T21:42:48.367Z,77.60
2019-02-05T21:45:22.119Z,82.37
2019-02-05T21:47:55.516Z,106.33
2019-02-05T21:50:26.603Z,111.60
2019-02-05T21:53:00.188Z,119.90
2019-02-05T21:55:31.299Z,102.30
2019-02-05T21:58:04.809Z,118.53
2019-02-05T22:00:35.849Z,101.13
2019-02-05T22:03:09.516Z,110.00
2019-02-05T22:05:40.555Z,99.07
2019-02-05T22:08:13.937Z,126.07
2019-02-05T22:10:45.155Z,177.67
2019-02-05T22:13:18.386Z,154.67
2019-02-05T22:15:49.406Z,153.30
2019-02-05T22:18:22.800Z,167.67
2019-02-05T22:20:53.886Z,164.40
2019-02-05T22:23:27.405Z,183.77
2019-02-05T22:25:58.531Z,143.87
2019-02-05T22:28:33.304Z,134.07
2019-02-05T22:31:04.490Z,166.57
2019-02-05T22:33:37.955Z,182.53
2019-02-05T22:36:09.292Z,182.43
2019-02-05T22:38:42.334Z,166.47
2019-02-05T22:41:13.458Z,147.13
2019-02-05T22:43:46.575Z,145.80
2019-02-05T22:46:17.616Z,125.07
2019-02-05T22:48:50.807Z,147.03
2019-02-05T22:51:21.947Z,131.70
2019-02-05T22:53:55.176Z,111.43
2019-02-05T22:56:26.337Z,124.30
2019-02-05T22:58:59.813Z,140.10
2019-02-05T23:01:36.513Z,139.73
2019-02-05T23:04:12.535Z,142.67
2019-02-05T23:06:56.781Z,143.77
2019-02-05T23:09:48.762Z,118.77
2019-02-05T23:12:33.846Z,123.97
2019-02-05T23:15:28.805Z,135.93
2019-02-05T23:17:58.760Z,125.70
2019-02-05T23:20:33.473Z,136.50
2019-02-05T23:23:04.537Z,112.47
2019-02-05T23:25:37.609Z,125.57
2019-02-05T23:28:08.760Z,118.43
2019-02-05T23:30:42.009Z,150.17
2019-02-05T23:33:13.645Z,117.73
2019-02-05T23:35:47.694Z,122.03
2019-02-05T23:38:21.724Z,120.57
2019-02-05T23:40:54.775Z,107.90
2019-02-05T23:43:25.936Z,126.43
2019-02-05T23:46:01.753Z,125.60
2019-02-05T23:48:31.712Z,118.77
2019-02-05T23:51:05.016Z,129.50
2019-02-05T23:53:36.028Z,113.83
2019-02-05T23:56:09.017Z,108.97
2019-02-05T23:58:40.016Z,117.63
